createdAt,value
2022-09-25T00:00:58.925Z,26.20
2022-09-25T00:03:28.300Z,24.23
2022-09-25T00:06:04.543Z,25.80
2022-09-25T00:08:33.110Z,25.20
2022-09-25T00:11:01.034Z,25.33
2022-09-25T00:13:28.704Z,24.07
2022-09-25T00:15:57.904Z,25.90
2022-09-25T00:18:44.398Z,26.20
2022-09-25T00:21:15.696Z,25.67
2022-09-25T00:23:44.737Z,26.77
2022-09-25T00:26:13.581Z,25.10
2022-09-25T00:28:41.701Z,24.30
2022-09-25T00:31:11.268Z,24.40
2022-09-25T00:33:39.122Z,25.97
2022-09-25T00:36:09.744Z,25.30
2022-09-25T00:38:39.408Z,25.20
2022-09-25T00:41:08.611Z,25.43
2022-09-25T00:43:40.003Z,26.10
2022-09-25T00:46:12.324Z,26.30
2022-09-25T00:48:49.487Z,26.77
2022-09-25T00:51:19.456Z,26.70
2022-09-25T00:53:49.927Z,26.43
2022-09-25T00:56:17.654Z,27.10
2022-09-25T00:58:45.246Z,26.07
2022-09-25T01:01:13.166Z,25.03
2022-09-25T01:03:46.286Z,25.70
2022-09-25T01:06:15.237Z,25.90
2022-09-25T01:08:44.263Z,25.73
2022-09-25T01:11:13.194Z,27.00
2022-09-25T01:13:41.265Z,24.33
2022-09-25T01:16:14.508Z,24.30
2022-09-25T01:18:53.146Z,24.60
2022-09-25T01:21:29.446Z,25.50
2022-09-25T01:24:19.141Z,24.57
2022-09-25T01:27:07.364Z,24.87
2022-09-25T01:29:41.572Z,25.77
2022-09-25T01:32:20.599Z,26.37
2022-09-25T01:34:56.464Z,25.60
2022-09-25T01:37:30.723Z,24.40
2022-09-25T01:40:07.682Z,25.00
2022-09-25T01:42:41.267Z,24.80
2022-09-25T01:45:17.039Z,24.27
2022-09-25T01:47:48.610Z,25.30
2022-09-25T01:50:19.998Z,24.13
2022-09-25T01:52:51.213Z,23.67
2022-09-25T01:55:23.426Z,23.60
2022-09-25T01:57:57.737Z,24.03
2022-09-25T02:00:27.044Z,24.43
2022-09-25T02:02:58.247Z,23.43
2022-09-25T02:05:30.951Z,24.70
2022-09-25T02:08:03.329Z,25.10
2022-09-25T02:10:36.082Z,24.63
2022-09-25T02:13:09.062Z,24.63
2022-09-25T02:15:40.314Z,25.17
2022-09-25T02:18:28.472Z,24.60
2022-09-25T02:21:01.392Z,24.80
2022-09-25T02:23:37.935Z,24.73
2022-09-25T02:26:08.970Z,26.30
2022-09-25T02:28:37.370Z,25.10
2022-09-25T02:31:11.329Z,25.00
2022-09-25T02:33:39.243Z,25.47
2022-09-25T02:36:07.344Z,26.20
2022-09-25T02:38:36.141Z,25.90
2022-09-25T02:41:16.435Z,25.00
2022-09-25T02:43:51.865Z,25.00
2022-09-25T02:46:30.397Z,26.20
2022-09-25T02:49:06.625Z,25.93
2022-09-25T02:51:42.793Z,26.00
2022-09-25T02:54:21.087Z,25.87
2022-09-25T02:56:54.435Z,26.00
2022-09-25T02:59:29.283Z,26.90
2022-09-25T03:01:59.830Z,26.10
2022-09-25T03:04:29.386Z,25.87
2022-09-25T03:06:58.143Z,26.10
2022-09-25T03:09:25.714Z,26.80
2022-09-25T03:11:53.309Z,25.87
2022-09-25T03:14:21.054Z,26.20
2022-09-25T03:16:51.321Z,26.07
2022-09-25T03:19:20.653Z,26.10
2022-09-25T03:21:48.674Z,26.60
2022-09-25T03:24:16.881Z,26.70
2022-09-25T03:26:44.621Z,26.17
2022-09-25T03:29:12.933Z,26.23
2022-09-25T03:31:42.114Z,27.60
2022-09-25T03:34:10.056Z,26.90
2022-09-25T03:36:39.060Z,26.23
2022-09-25T03:39:06.939Z,26.00
2022-09-25T03:41:35.584Z,26.20
2022-09-25T03:44:04.816Z,25.20
2022-09-25T03:46:34.245Z,25.70
2022-09-25T03:49:03.107Z,26.50
2022-09-25T03:51:32.718Z,26.80
2022-09-25T03:54:03.920Z,26.33
2022-09-25T03:56:32.624Z,26.70
2022-09-25T03:59:00.589Z,26.07
2022-09-25T04:01:29.592Z,26.80
2022-09-25T04:03:57.355Z,25.87
2022-09-25T04:06:26.976Z,27.47
2022-09-25T04:08:55.186Z,26.57
2022-09-25T04:11:25.760Z,25.93
2022-09-25T04:13:53.872Z,27.53
2022-09-25T04:16:21.955Z,25.90
2022-09-25T04:18:50.609Z,27.70
2022-09-25T04:21:18.223Z,26.80
2022-09-25T04:24:06.506Z,25.87
2022-09-25T04:26:36.183Z,26.80
2022-09-25T04:29:03.989Z,27.60
2022-09-25T04:31:32.173Z,28.97
2022-09-25T04:33:58.864Z,26.60
2022-09-25T04:36:26.442Z,27.20
2022-09-25T04:38:53.985Z,26.97
2022-09-25T04:41:21.607Z,28.40
2022-09-25T04:43:50.517Z,27.50
2022-09-25T04:46:22.216Z,27.80
2022-09-25T04:48:50.963Z,27.83
2022-09-25T04:51:18.514Z,25.63
2022-09-25T04:53:47.219Z,27.63
2022-09-25T04:56:16.394Z,27.80
2022-09-25T04:58:45.734Z,28.40
2022-09-25T05:01:14.749Z,28.10
2022-09-25T05:03:42.769Z,28.70
2022-09-25T05:06:10.467Z,29.87
2022-09-25T05:08:38.403Z,28.00
2022-09-25T05:11:06.038Z,27.90
2022-09-25T05:13:33.573Z,28.77
2022-09-25T05:16:01.257Z,28.23
2022-09-25T05:18:30.191Z,27.67
2022-09-25T05:20:58.062Z,29.03
2022-09-25T05:23:25.706Z,28.37
2022-09-25T05:25:55.047Z,29.23
2022-09-25T05:28:23.507Z,28.07
2022-09-25T05:30:51.777Z,29.60
2022-09-25T05:33:19.464Z,29.40
2022-09-25T05:35:49.402Z,29.57
2022-09-25T05:38:17.002Z,30.97
2022-09-25T05:40:44.911Z,29.80
2022-09-25T05:43:13.118Z,29.47
2022-09-25T05:45:40.658Z,31.63
2022-09-25T05:48:09.427Z,31.83
2022-09-25T05:50:37.135Z,31.50
2022-09-25T05:53:06.673Z,30.67
2022-09-25T05:55:34.255Z,32.77
2022-09-25T05:58:02.774Z,33.27
2022-09-25T06:00:32.477Z,33.83
2022-09-25T06:03:00.269Z,33.00
2022-09-25T06:05:27.926Z,35.83
2022-09-25T06:07:56.457Z,36.23
2022-09-25T06:10:26.797Z,32.10
2022-09-25T06:12:58.581Z,32.80
2022-09-25T06:15:28.060Z,32.50
2022-09-25T06:17:56.026Z,31.43
2022-09-25T06:20:23.873Z,31.50
2022-09-25T06:22:54.518Z,32.00
2022-09-25T06:25:23.804Z,32.97
2022-09-25T06:27:54.992Z,32.73
2022-09-25T06:30:23.737Z,32.70
2022-09-25T06:32:57.630Z,35.30
2022-09-25T06:35:25.833Z,34.90
2022-09-25T06:37:57.254Z,37.30
2022-09-25T06:40:26.362Z,37.33
2022-09-25T06:42:57.842Z,38.73
2022-09-25T06:45:26.926Z,38.77
2022-09-25T06:47:57.755Z,36.33
2022-09-25T06:50:31.606Z,36.83
2022-09-25T06:52:59.695Z,33.50
2022-09-25T06:55:27.695Z,33.60
2022-09-25T06:57:55.234Z,33.63
2022-09-25T07:00:24.193Z,34.23
2022-09-25T07:03:09.640Z,35.17
2022-09-25T07:05:37.236Z,34.93
2022-09-25T07:08:04.920Z,33.03
2022-09-25T07:10:32.454Z,34.00
2022-09-25T07:13:00.373Z,33.67
2022-09-25T07:15:29.384Z,34.00
2022-09-25T07:17:56.925Z,32.87
2022-09-25T07:20:24.557Z,31.60
2022-09-25T07:22:54.272Z,32.80
2022-09-25T07:25:21.814Z,32.33
2022-09-25T07:27:50.051Z,31.50
2022-09-25T07:30:17.656Z,32.47
2022-09-25T07:32:46.547Z,33.00
2022-09-25T07:35:14.223Z,33.70
2022-09-25T07:37:41.759Z,31.20
2022-09-25T07:40:13.665Z,32.80
2022-09-25T07:42:41.986Z,32.50
2022-09-25T07:45:10.990Z,31.73
2022-09-25T07:47:38.678Z,32.77
2022-09-25T07:50:12.032Z,31.20
2022-09-25T07:52:42.922Z,31.20
2022-09-25T07:55:10.828Z,31.77
2022-09-25T07:57:38.369Z,30.93
2022-09-25T08:00:06.985Z,29.50
2022-09-25T08:02:35.189Z,31.80
2022-09-25T08:05:02.822Z,29.50
2022-09-25T08:07:31.987Z,31.40
2022-09-25T08:09:59.548Z,29.83
2022-09-25T08:12:28.397Z,29.47
2022-09-25T08:14:55.956Z,29.33
2022-09-25T08:17:23.819Z,30.67
2022-09-25T08:19:51.363Z,28.73
2022-09-25T08:22:18.887Z,27.77
2022-09-25T08:24:48.650Z,27.53
2022-09-25T08:27:16.346Z,28.37
2022-09-25T08:29:43.874Z,26.57
2022-09-25T08:32:12.078Z,26.20
2022-09-25T08:34:41.382Z,26.40
2022-09-25T08:37:09.813Z,25.80
2022-09-25T08:39:37.556Z,26.50
2022-09-25T08:42:06.628Z,25.60
2022-09-25T08:44:38.445Z,25.20
2022-09-25T08:47:29.598Z,24.63
2022-09-25T08:50:03.837Z,25.80
2022-09-25T08:52:32.049Z,25.83
2022-09-25T08:54:59.705Z,24.93
2022-09-25T08:57:35.097Z,25.67
2022-09-25T09:00:08.777Z,24.50
2022-09-25T09:02:42.555Z,24.60
2022-09-25T09:05:18.555Z,25.10
2022-09-25T09:07:50.605Z,24.10
2022-09-25T09:10:28.570Z,23.80
2022-09-25T09:13:00.692Z,24.43
2022-09-25T09:15:33.613Z,24.00
2022-09-25T09:18:06.600Z,24.60
2022-09-25T09:20:42.575Z,23.70
2022-09-25T09:23:17.058Z,23.13
2022-09-25T09:25:51.651Z,24.60
2022-09-25T09:42:25.726Z,22.80
2022-09-25T09:45:05.036Z,24.20
2022-09-25T09:47:41.870Z,22.37
2022-09-25T09:50:24.176Z,23.17
2022-09-25T09:52:59.290Z,22.60
2022-09-25T09:55:34.460Z,22.30
2022-09-25T09:58:08.521Z,22.97
2022-09-25T10:00:37.403Z,22.73
2022-09-25T10:03:12.272Z,22.37
2022-09-25T10:05:43.892Z,23.60
2022-09-25T10:08:12.122Z,21.57
2022-09-25T10:10:41.642Z,23.10
2022-09-25T10:13:16.228Z,22.23
2022-09-25T10:15:48.248Z,21.33
2022-09-25T10:18:17.442Z,22.03
2022-09-25T10:20:48.655Z,21.47
2022-09-25T10:23:32.866Z,21.80
2022-09-25T10:26:00.768Z,21.63
2022-09-25T10:28:32.214Z,20.87
2022-09-25T10:31:01.821Z,21.83
2022-09-25T10:33:31.660Z,21.03
2022-09-25T10:35:59.769Z,20.70
2022-09-25T10:38:41.945Z,20.07
2022-09-25T10:41:12.956Z,19.53
2022-09-25T10:43:55.704Z,19.33
2022-09-25T10:47:00.778Z,17.90
2022-09-25T10:49:47.064Z,16.03
2022-09-25T10:52:17.137Z,15.43
2022-09-25T10:54:45.828Z,14.97
2022-09-25T10:57:34.342Z,14.40
2022-09-25T11:00:06.054Z,12.90
2022-09-25T11:02:37.986Z,12.87
2022-09-25T11:05:08.956Z,11.60
2022-09-25T11:07:36.519Z,11.03
2022-09-25T11:10:05.132Z,10.07
2022-09-25T11:12:33.070Z,9.73
2022-09-25T11:15:05.785Z,9.87
2022-09-25T11:17:38.325Z,10.43
2022-09-25T11:20:30.587Z,8.40
2022-09-25T11:23:06.566Z,8.40
2022-09-25T11:25:40.176Z,7.70
2022-09-25T11:28:14.709Z,7.30
2022-09-25T11:30:49.409Z,6.53
2022-09-25T11:33:24.993Z,6.40
2022-09-25T11:35:57.647Z,6.83
2022-09-25T11:38:50.598Z,7.17
2022-09-25T11:41:26.253Z,7.57
2022-09-25T11:44:02.905Z,7.33
2022-09-25T11:46:40.834Z,5.60
2022-09-25T11:49:18.061Z,6.80
2022-09-25T11:52:32.446Z,7.30
2022-09-25T11:55:16.365Z,7.10
2022-09-25T11:57:55.948Z,7.03
2022-09-25T12:00:29.754Z,7.07
2022-09-25T12:03:22.462Z,5.87
2022-09-25T12:06:14.214Z,6.60
2022-09-25T12:08:58.008Z,6.70
2022-09-25T12:11:41.223Z,5.80
2022-09-25T12:14:17.208Z,5.63
2022-09-25T12:16:52.319Z,5.43
2022-09-25T12:19:33.582Z,5.30
2022-09-25T12:22:09.032Z,5.20
2022-09-25T12:24:51.189Z,4.90
2022-09-25T12:27:28.026Z,5.40
2022-09-25T12:30:08.666Z,5.17
2022-09-25T12:32:54.237Z,5.47
2022-09-25T12:35:43.365Z,5.20
2022-09-25T12:38:22.282Z,5.53
2022-09-25T12:40:55.948Z,4.60
2022-09-25T12:43:28.861Z,4.80
2022-09-25T12:46:03.469Z,4.93
2022-09-25T12:48:37.251Z,4.50
2022-09-25T12:51:14.710Z,4.20
2022-09-25T12:53:47.403Z,4.37
2022-09-25T12:56:18.957Z,4.50
2022-09-25T12:58:57.391Z,3.70
2022-09-25T13:01:31.140Z,3.90
2022-09-25T13:04:20.846Z,4.33
2022-09-25T13:06:56.401Z,4.70
2022-09-25T13:09:33.714Z,4.20
2022-09-25T13:12:06.862Z,4.53
2022-09-25T13:14:39.799Z,4.90
2022-09-25T13:17:12.090Z,4.50
2022-09-25T13:19:39.724Z,4.30
2022-09-25T13:22:12.514Z,4.50
2022-09-25T13:24:45.714Z,3.70
2022-09-25T13:27:19.726Z,3.60
2022-09-25T13:29:55.296Z,3.40
2022-09-25T13:32:25.378Z,4.20
2022-09-25T13:34:56.087Z,3.90
2022-09-25T13:37:31.489Z,3.50
2022-09-25T13:40:19.636Z,3.40
2022-09-25T13:42:47.741Z,3.90
2022-09-25T13:45:33.292Z,3.57
2022-09-25T13:48:07.856Z,3.77
2022-09-25T13:50:46.126Z,3.47
2022-09-25T13:53:32.211Z,3.30
2022-09-25T13:56:15.145Z,4.13
2022-09-25T13:59:10.015Z,3.23
2022-09-25T14:01:39.750Z,4.13
2022-09-25T14:04:16.843Z,3.60
2022-09-25T14:06:46.706Z,3.60
2022-09-25T14:09:18.409Z,3.23
2022-09-25T14:11:54.183Z,3.43
2022-09-25T14:14:29.831Z,3.70
2022-09-25T14:16:59.362Z,3.37
2022-09-25T14:19:30.630Z,3.10
2022-09-25T14:22:00.533Z,3.07
2022-09-25T14:24:30.905Z,3.30
2022-09-25T14:27:00.211Z,3.40
2022-09-25T14:29:30.955Z,3.90
2022-09-25T14:32:25.861Z,3.10
2022-09-25T14:35:24.955Z,3.10
2022-09-25T14:38:15.978Z,3.70
2022-09-25T14:40:57.115Z,3.83
2022-09-25T14:43:47.668Z,4.40
2022-09-25T14:46:20.038Z,4.03
2022-09-25T14:48:52.053Z,4.40
2022-09-25T14:51:25.661Z,4.13
2022-09-25T14:53:58.263Z,3.90
2022-09-25T14:56:28.970Z,3.80
2022-09-25T14:58:59.167Z,4.20
2022-09-25T15:01:29.396Z,5.20
2022-09-25T15:04:00.751Z,4.73
2022-09-25T15:06:31.470Z,4.33
2022-09-25T15:09:01.692Z,4.60
2022-09-25T15:11:44.084Z,4.63
2022-09-25T15:14:13.337Z,4.93
2022-09-25T15:17:00.795Z,5.37
2022-09-25T15:19:33.402Z,5.50
2022-09-25T15:22:01.586Z,4.77
2022-09-25T15:24:32.594Z,4.70
2022-09-25T15:27:04.928Z,5.03
2022-09-25T15:29:36.329Z,4.60
2022-09-25T15:32:05.122Z,4.63
2022-09-25T15:34:33.239Z,3.70
2022-09-25T15:37:20.822Z,3.70
2022-09-25T15:39:48.346Z,4.97
2022-09-25T15:42:17.317Z,4.10
2022-09-25T15:44:45.419Z,4.10
2022-09-25T15:47:52.184Z,3.40
2022-09-25T15:50:25.104Z,3.90
2022-09-25T15:52:56.332Z,4.00
2022-09-25T15:55:24.539Z,4.17
2022-09-25T15:57:56.477Z,3.87
2022-09-25T16:00:43.346Z,4.03
2022-09-25T16:03:36.359Z,3.77
2022-09-25T16:06:04.470Z,3.97
2022-09-25T16:08:33.868Z,3.63
2022-09-25T16:11:15.509Z,3.97
2022-09-25T16:13:46.379Z,3.40
2022-09-25T16:16:23.871Z,2.93
2022-09-25T16:18:54.583Z,3.70
2022-09-25T16:21:28.721Z,3.23
2022-09-25T16:23:59.604Z,3.73
2022-09-25T16:26:36.198Z,3.83
2022-09-25T16:29:15.838Z,3.80
2022-09-25T16:31:45.028Z,3.83
2022-09-25T16:34:19.795Z,4.03
2022-09-25T16:36:48.474Z,4.63
2022-09-25T16:39:24.661Z,5.03
2022-09-25T16:41:52.869Z,4.27
2022-09-25T16:44:22.083Z,3.60
2022-09-25T16:47:07.591Z,3.93
2022-09-25T16:49:36.520Z,3.80
2022-09-25T16:52:07.607Z,4.23
2022-09-25T16:54:38.864Z,3.47
2022-09-25T16:57:06.439Z,4.03
2022-09-25T16:59:34.043Z,3.40
2022-09-25T17:02:20.899Z,4.40
2022-09-25T17:04:50.626Z,3.83
2022-09-25T17:07:18.297Z,4.23
2022-09-25T17:09:45.818Z,3.70
2022-09-25T17:12:19.372Z,3.77
2022-09-25T17:14:48.631Z,3.80
2022-09-25T17:17:19.718Z,3.83
2022-09-25T17:19:47.244Z,3.90
2022-09-25T17:22:16.281Z,4.17
2022-09-25T17:24:43.820Z,4.07
2022-09-25T17:27:13.733Z,3.93
2022-09-25T17:29:41.514Z,3.83
2022-09-25T17:32:14.013Z,4.70
2022-09-25T17:34:42.426Z,4.10
2022-09-25T17:37:09.946Z,4.30
2022-09-25T17:39:38.887Z,3.90
2022-09-25T17:42:06.669Z,3.77
2022-09-25T17:44:34.552Z,4.47
2022-09-25T17:47:02.187Z,4.40
2022-09-25T17:49:29.983Z,3.43
2022-09-25T17:51:57.605Z,4.23
2022-09-25T17:54:26.962Z,4.43
2022-09-25T17:56:56.781Z,5.00
2022-09-25T17:59:24.377Z,4.37
2022-09-25T18:01:53.016Z,4.20
2022-09-25T18:04:22.594Z,3.90
2022-09-25T18:06:50.597Z,4.23
2022-09-25T18:09:18.468Z,4.97
2022-09-25T18:11:46.104Z,4.30
2022-09-25T18:14:16.758Z,4.03
2022-09-25T18:16:45.573Z,5.17
2022-09-25T18:19:35.411Z,4.80
2022-09-25T18:22:19.006Z,4.87
2022-09-25T18:24:47.136Z,5.33
2022-09-25T18:27:16.117Z,4.10
2022-09-25T18:29:46.153Z,4.43
2022-09-25T18:32:14.328Z,3.90
2022-09-25T18:34:42.232Z,4.07
2022-09-25T18:37:10.330Z,4.50
2022-09-25T18:39:38.195Z,3.33
2022-09-25T18:42:06.111Z,3.60
2022-09-25T18:44:38.477Z,3.83
2022-09-25T18:47:10.377Z,3.80
2022-09-25T18:49:38.081Z,3.93
2022-09-25T18:52:06.318Z,4.57
2022-09-25T18:54:34.077Z,4.57
2022-09-25T18:57:01.641Z,4.63
2022-09-25T18:59:29.208Z,3.87
2022-09-25T19:01:57.094Z,3.83
2022-09-25T19:04:26.602Z,3.93
2022-09-25T19:06:54.131Z,3.80
2022-09-25T19:09:24.190Z,4.07
2022-09-25T19:11:52.132Z,4.53
2022-09-25T19:14:19.978Z,4.53
2022-09-25T19:16:48.175Z,4.63
2022-09-25T19:19:15.821Z,4.73
2022-09-25T19:21:44.890Z,4.27
2022-09-25T19:24:13.035Z,5.23
2022-09-25T19:26:41.544Z,5.40
2022-09-25T19:29:09.447Z,4.77
2022-09-25T19:31:37.567Z,4.80
2022-09-25T19:34:05.308Z,4.90
2022-09-25T19:36:34.622Z,5.90
2022-09-25T19:39:03.872Z,6.47
2022-09-25T19:41:33.954Z,5.30
2022-09-25T19:44:08.133Z,5.67
2022-09-25T19:46:41.395Z,6.03
2022-09-25T19:49:09.745Z,6.07
2022-09-25T19:51:37.640Z,9.10
2022-09-25T19:54:07.703Z,9.30
2022-09-25T19:56:40.305Z,7.43
2022-09-25T19:59:08.651Z,7.10
2022-09-25T20:01:36.441Z,7.23
2022-09-25T20:04:08.271Z,7.23
2022-09-25T20:06:37.519Z,8.13
2022-09-25T20:09:09.758Z,7.80
2022-09-25T20:11:37.553Z,8.87
2022-09-25T20:14:07.439Z,9.63
2022-09-25T20:16:37.258Z,8.57
2022-09-25T20:19:06.655Z,9.30
2022-09-25T20:21:36.235Z,8.53
2022-09-25T20:24:07.430Z,11.00
2022-09-25T20:26:35.898Z,10.33
2022-09-25T20:29:08.401Z,9.40
2022-09-25T20:31:38.110Z,8.70
2022-09-25T20:34:05.739Z,9.37
2022-09-25T20:36:33.345Z,9.83
2022-09-25T20:39:00.927Z,10.00
2022-09-25T20:41:29.944Z,9.60
2022-09-25T20:43:58.644Z,9.53
2022-09-25T20:46:27.481Z,9.40
2022-09-25T20:48:57.711Z,10.33
2022-09-25T20:51:27.883Z,11.57
2022-09-25T20:53:57.341Z,12.10
2022-09-25T20:56:25.342Z,12.17
2022-09-25T20:58:55.879Z,12.80
2022-09-25T21:01:26.252Z,12.27
2022-09-25T21:03:54.531Z,12.03
2022-09-25T21:06:24.101Z,12.00
2022-09-25T21:08:53.196Z,12.03
2022-09-25T21:11:21.206Z,11.43
2022-09-25T21:13:51.965Z,11.77
2022-09-25T21:16:22.705Z,12.13
2022-09-25T21:18:53.311Z,12.20
2022-09-25T21:21:21.081Z,13.83
2022-09-25T21:23:51.484Z,13.13
2022-09-25T21:26:19.695Z,13.07
2022-09-25T21:28:48.969Z,13.73
2022-09-25T21:31:18.522Z,13.73
2022-09-25T21:33:47.984Z,13.93
2022-09-25T21:36:17.804Z,13.97
2022-09-25T21:38:45.605Z,14.33
2022-09-25T21:41:14.750Z,14.23
2022-09-25T21:43:42.966Z,15.57
2022-09-25T21:46:13.995Z,15.60
2022-09-25T21:48:44.804Z,16.10
2022-09-25T21:51:14.518Z,17.23
2022-09-25T21:53:42.587Z,16.00
2022-09-25T21:56:12.150Z,17.03
2022-09-25T21:58:40.350Z,16.67
2022-09-25T22:01:10.176Z,17.07
2022-09-25T22:03:39.730Z,17.77
2022-09-25T22:06:09.875Z,18.00
2022-09-25T22:08:40.206Z,17.70
2022-09-25T22:11:10.610Z,18.60
2022-09-25T22:13:40.225Z,18.07
2022-09-25T22:16:09.736Z,18.67
2022-09-25T22:18:42.983Z,16.87
2022-09-25T22:21:11.094Z,15.70
2022-09-25T22:23:40.113Z,15.50
2022-09-25T22:26:08.243Z,15.50
2022-09-25T22:28:36.854Z,16.60
2022-09-25T22:31:06.885Z,16.47
2022-09-25T22:33:34.881Z,16.47
2022-09-25T22:36:03.807Z,17.80
2022-09-25T22:38:31.621Z,16.10
2022-09-25T22:41:03.702Z,16.97
2022-09-25T22:43:31.246Z,16.80
2022-09-25T22:45:59.737Z,16.77
2022-09-25T22:48:27.764Z,17.10
2022-09-25T22:50:56.042Z,16.80
2022-09-25T22:53:24.271Z,16.70
2022-09-25T22:55:52.143Z,17.27
2022-09-25T22:58:21.607Z,16.60
2022-09-25T23:00:51.616Z,16.47
2022-09-25T23:03:22.464Z,16.50
2022-09-25T23:05:51.983Z,17.60
2022-09-25T23:08:19.578Z,18.90
2022-09-25T23:11:06.200Z,18.93
2022-09-25T23:13:35.872Z,19.57
2022-09-25T23:16:05.833Z,19.27
2022-09-25T23:18:33.773Z,18.73
